.
WxDataArchive / Data Records for 2015-09-15
2015-09-14 September 2015 2015-09-16

Data Records for Tuesday, 15 September 2015

Time	Temp	Chill	HIndex	Humid	Dewpt	 Wind 	HiWind	WindDir	Rain 	Barom 
-----	----	-----	------	-----	-----	------	------	-------	-----	----- 
00:00	60.9	60.9	60.9	67	49.9	0	0	---	0.00	30.153 
00:05	60.9	60.9	60.9	67	49.9	0	0	---	0.00	30.153 
00:10	60.9	60.9	60.9	67	49.9	0	0	---	0.00	30.153 
00:15	60.9	60.9	60.9	67	49.9	0	0	---	0.00	30.158 
00:20	60.9	60.9	60.9	67	49.9	0	0	---	0.00	30.158 
00:25	60.9	60.9	60.9	67	49.9	0	0	---	0.00	30.158 
00:30	61.0	61.0	61.0	66	49.6	0	0	---	0.00	30.160 
00:35	61.0	61.0	61.0	66	49.6	0	0	---	0.00	30.160 
00:40	61.0	61.0	61.0	66	49.6	0	0	---	0.00	30.160 
00:45	61.2	61.2	61.2	66	49.7	0	0	---	0.00	30.163 
00:50	61.0	61.0	61.0	66	49.6	0	0	---	0.00	30.163 
00:55	61.0	61.0	61.0	66	49.6	0	0	---	0.00	30.163 
01:00	60.9	60.9	60.9	66	49.5	0	0	---	0.00	30.165 
01:05	60.9	60.9	60.9	66	49.5	0	0	---	0.00	30.165 
01:10	60.9	60.9	60.9	66	49.5	0	0	---	0.00	30.165 
01:15	60.9	60.9	60.9	66	49.5	0	0	---	0.00	30.161 
01:20	60.9	60.9	60.9	66	49.5	0	0	---	0.00	30.161 
01:25	61.0	61.0	61.0	66	49.6	0	0	---	0.00	30.161 
01:30	61.0	61.0	61.0	66	49.6	0	0	---	0.00	30.161 
01:35	61.0	61.0	61.0	66	49.6	0	0	---	0.00	30.161 
01:40	61.2	61.2	61.2	66	49.7	0	0	---	0.00	30.161 
01:45	61.3	61.3	61.3	66	49.8	0	1	112	0.00	30.163 
01:50	61.5	61.5	61.5	66	50.0	0	0	---	0.00	30.163 
01:55	61.6	61.6	61.6	65	49.7	0	0	---	0.00	30.163 
02:00	61.8	61.8	61.8	65	49.9	0	0	---	0.00	30.163 
02:05	62.0	62.0	62.0	64	49.7	0	1	112	0.00	30.163 
02:10	62.1	62.1	62.1	64	49.8	0	0	---	0.00	30.163 
02:15	62.3	62.3	62.3	63	49.5	0	1	112	0.00	30.165 
02:20	62.4	62.4	62.4	63	49.6	0	0	---	0.00	30.165 
02:25	62.4	62.4	62.4	63	49.6	0	1	112	0.00	30.165 
02:30	62.4	62.4	62.4	62	49.2	0	1	112	0.00	30.171 
02:35	62.4	62.4	62.4	63	49.6	0	0	---	0.00	30.171 
02:40	62.4	62.4	62.4	62	49.2	0	1	112	0.00	30.171 
02:45	62.3	62.3	62.3	63	49.5	0	1	112	0.00	30.176 
02:50	62.3	62.3	62.3	63	49.5	0	1	112	0.00	30.176 
02:55	62.1	62.1	62.1	63	49.3	0	1	112	0.00	30.176 
03:00	62.0	62.0	62.0	63	49.3	0	1	112	0.00	30.178 
03:05	62.0	62.0	62.0	63	49.3	0	0	---	0.00	30.178 
03:10	61.8	61.8	61.8	64	49.5	0	0	---	0.00	30.178 
03:15	61.6	61.6	61.6	64	49.3	0	0	---	0.00	30.181 
03:20	61.5	61.5	61.5	65	49.6	0	0	---	0.00	30.181 
03:25	61.3	61.3	61.3	65	49.4	0	1	112	0.00	30.181 
03:30	61.2	61.2	61.2	65	49.3	0	0	---	0.00	30.183 
03:35	61.0	61.0	61.0	66	49.6	0	2	112	0.00	30.183 
03:40	60.9	60.9	60.9	66	49.5	0	2	---	0.00	30.183 
03:45	60.7	60.7	60.7	67	49.7	0	0	---	0.00	30.186 
03:50	60.5	60.5	60.5	67	49.5	0	0	---	0.00	30.186 
03:55	60.4	60.4	60.4	68	49.8	0	0	---	0.00	30.186 
04:00	60.2	60.2	60.2	68	49.6	0	0	---	0.00	30.193 
04:05	60.1	60.1	60.1	69	49.9	0	0	---	0.00	30.193 
04:10	59.9	59.9	59.9	69	49.7	0	0	---	0.00	30.193 
04:15	59.8	59.8	59.8	70	50.0	0	0	---	0.00	30.192 
04:20	59.6	59.6	59.6	70	49.8	0	0	---	0.00	30.192 
04:25	59.5	59.5	59.5	71	50.1	0	0	---	0.00	30.192 
04:30	59.3	59.3	59.3	72	50.3	0	0	---	0.00	30.197 
04:35	59.2	59.2	59.2	72	50.2	0	0	---	0.00	30.197 
04:40	59.0	59.0	59.0	73	50.4	0	0	---	0.00	30.197 
04:45	58.9	58.9	58.9	73	50.3	0	0	---	0.00	30.201 
04:50	58.9	58.9	58.9	73	50.3	0	0	---	0.00	30.201 
04:55	58.7	58.7	58.7	73	50.1	0	0	---	0.00	30.201 
05:00	58.7	58.7	58.7	74	50.4	0	0	---	0.00	30.208 
05:05	58.6	58.6	58.6	74	50.3	0	0	---	0.00	30.208 
05:10	58.6	58.6	58.6	74	50.3	0	0	---	0.00	30.208 
05:15	58.4	58.4	58.4	74	50.1	0	0	---	0.00	30.212 
05:20	58.4	58.4	58.4	74	50.1	0	0	---	0.00	30.212 
05:25	58.6	58.6	58.6	74	50.3	0	0	---	0.00	30.212 
05:30	58.6	58.6	58.6	74	50.3	0	0	---	0.00	30.214 
05:35	58.7	58.7	58.7	75	50.8	0	0	---	0.00	30.214 
05:40	58.6	58.6	58.6	75	50.7	0	0	---	0.00	30.214 
05:45	58.6	58.6	58.6	75	50.7	0	0	---	0.00	30.225 
05:50	58.6	58.6	58.6	75	50.7	0	0	---	0.00	30.225 
05:55	58.6	58.6	58.6	76	51.1	0	0	---	0.00	30.225 
06:00	58.6	58.6	58.6	77	51.4	0	0	---	0.00	30.227 
06:05	58.4	58.4	58.4	77	51.2	0	0	---	0.00	30.227 
06:10	58.4	58.4	58.4	77	51.2	0	0	---	0.00	30.227 
06:15	58.4	58.4	58.4	77	51.2	0	0	---	0.00	30.234 
06:20	58.4	58.4	58.4	77	51.2	0	0	---	0.00	30.234 
06:25	58.6	58.6	58.6	78	51.8	0	0	---	0.00	30.234 
06:30	58.6	58.6	58.6	77	51.4	0	0	---	0.00	30.239 
06:35	58.6	58.6	58.6	77	51.4	0	0	---	0.00	30.239 
06:40	58.6	58.6	58.6	77	51.4	0	0	---	0.00	30.239 
06:45	58.7	58.7	58.7	77	51.5	0	0	---	0.00	30.244 
06:50	58.7	58.7	58.7	77	51.5	0	0	---	0.00	30.244 
06:55	58.7	58.7	58.7	77	51.5	0	0	---	0.00	30.244 
07:00	58.7	58.7	58.7	77	51.5	0	0	---	0.00	30.246 
07:05	58.7	58.7	58.7	76	51.2	0	0	---	0.00	30.246 
07:10	58.7	58.7	58.7	77	51.5	0	0	---	0.00	30.246 
07:15	58.7	58.7	58.7	77	51.5	0	0	---	0.00	30.249 
07:20	58.7	58.7	58.7	77	51.5	0	0	---	0.00	30.249 
07:25	58.6	58.6	58.6	77	51.4	0	0	---	0.00	30.249 
07:30	58.4	58.4	58.4	77	51.2	0	0	---	0.00	30.257 
07:35	58.3	58.3	58.3	78	51.5	0	0	---	0.00	30.257 
07:40	58.1	58.1	58.1	78	51.3	0	0	---	0.00	30.257 
07:45	58.0	58.0	58.0	79	51.5	0	0	---	0.00	30.261 
07:50	58.0	58.0	58.0	79	51.5	0	0	---	0.00	30.261 
07:55	57.8	57.8	57.8	79	51.3	0	0	---	0.00	30.261 
08:00	57.8	57.8	57.8	79	51.3	0	0	---	0.00	30.263 
08:05	57.8	57.8	57.8	79	51.3	0	0	---	0.00	30.263 
08:10	57.8	57.8	57.8	79	51.3	0	0	---	0.00	30.263 
08:15	58.0	58.0	58.0	79	51.5	0	0	---	0.00	30.268 
08:20	58.0	58.0	58.0	79	51.5	0	0	---	0.00	30.268 
08:25	58.1	58.1	58.1	79	51.6	0	0	---	0.00	30.268 
08:30	58.3	58.3	58.3	79	51.8	0	0	---	0.00	30.270 
08:35	58.4	58.4	58.4	79	51.9	0	0	---	0.00	30.270 
08:40	58.7	58.7	58.7	78	51.9	0	0	---	0.00	30.270 
08:45	58.9	58.9	58.9	77	51.7	0	0	---	0.00	30.269 
08:50	59.3	59.3	59.3	77	52.1	0	0	---	0.00	30.269 
08:55	59.6	59.6	59.6	77	52.4	0	0	---	0.00	30.269 
09:00	59.9	59.9	59.9	77	52.7	0	0	---	0.00	30.269 
09:05	60.2	60.2	60.2	76	52.6	0	0	---	0.00	30.269 
09:10	60.7	60.7	60.7	74	52.4	0	0	---	0.00	30.269 
09:15	61.0	61.0	61.0	73	52.3	0	0	---	0.00	30.275 
09:20	61.3	61.3	61.3	73	52.6	0	0	---	0.00	30.275 
09:25	61.6	61.6	61.6	72	52.5	0	0	---	0.00	30.275 
09:30	62.1	62.1	62.1	71	52.6	0	0	---	0.00	30.275 
09:35	62.6	62.6	62.6	70	52.7	0	2	112	0.00	30.275 
09:40	63.2	63.2	63.2	68	52.5	0	1	112	0.00	30.275 
09:45	63.9	63.9	63.9	67	52.7	0	1	112	0.00	30.278 
09:50	64.5	64.5	64.5	66	52.9	0	1	112	0.00	30.278 
09:55	65.2	65.2	65.2	64	52.7	0	1	112	0.00	30.278 
10:00	65.8	65.8	65.8	63	52.8	0	1	112	0.00	30.279 
10:05	66.4	66.4	66.4	62	53.0	0	1	112	0.00	30.279 
10:10	67.3	67.3	67.3	58	52.0	0	1	112	0.00	30.279 
10:15	68.4	68.4	68.4	56	52.1	0	2	112	0.00	30.283 
10:20	69.3	69.3	69.3	54	51.9	0	1	112	0.00	30.283 
10:25	70.3	70.3	70.3	53	52.3	0	2	112	0.00	30.283 
10:30	70.9	70.9	70.9	51	51.9	0	2	112	0.00	30.280 
10:35	71.6	71.6	71.6	50	52.0	0	1	112	0.00	30.280 
10:40	72.3	72.3	72.3	53	54.2	0	1	112	0.00	30.280 
10:45	73.0	73.0	73.0	48	52.1	0	3	112	0.00	30.285 
10:50	73.3	73.3	73.3	49	53.0	0	1	112	0.00	30.285 
10:55	74.0	74.0	74.0	46	51.9	0	2	112	0.00	30.285 
11:00	74.2	74.2	74.2	45	51.5	0	1	112	0.00	30.285 
11:05	74.0	74.0	74.0	47	52.5	0	1	112	0.00	30.285 
11:10	74.2	74.2	74.2	47	52.7	0	1	112	0.00	30.285 
11:15	74.7	74.7	74.7	45	51.9	0	2	112	0.00	30.288 
11:20	75.1	75.1	77.6	44	51.7	0	1	112	0.00	30.288 
11:25	75.6	75.6	77.8	43	51.5	0	3	112	0.00	30.288 
11:30	76.1	76.1	78.0	43	52.0	0	2	112	0.00	30.285 
11:35	76.8	76.8	78.2	41	51.3	0	2	112	0.00	30.285 
11:40	77.0	77.0	78.3	42	52.1	1	5	90	0.00	30.285 
11:45	77.2	77.2	78.4	41	51.7	0	2	90	0.00	30.284 
11:50	76.8	76.8	78.2	42	51.9	0	3	90	0.00	30.284 
11:55	76.8	76.8	78.2	41	51.3	0	1	90	0.00	30.284 
12:00	76.8	76.8	78.1	40	50.6	1	3	90	0.00	30.282 
12:05	76.7	76.7	78.2	42	51.9	0	1	292	0.00	30.282 
12:10	77.2	77.2	78.4	41	51.7	0	2	292	0.00	30.282 
12:15	77.6	77.6	78.5	40	51.3	0	2	292	0.00	30.276 
12:20	77.0	77.0	78.2	40	50.8	0	2	292	0.00	30.276 
12:25	77.0	77.0	78.3	42	52.1	0	3	292	0.00	30.276 
12:30	77.6	77.6	78.7	43	53.3	0	1	292	0.00	30.271 
12:35	78.1	78.1	78.8	41	52.5	0	1	292	0.00	30.271 
12:40	78.5	78.5	79.0	40	52.1	0	2	292	0.00	30.271 
12:45	78.5	78.5	79.0	40	52.1	0	3	292	0.00	30.268 
12:50	78.5	78.5	79.0	40	52.1	0	2	292	0.00	30.268 
12:55	78.8	78.8	79.0	38	51.0	0	1	292	0.00	30.268 
13:00	78.8	78.8	79.2	40	52.4	0	3	292	0.00	30.267 
13:05	79.2	79.2	79.3	39	52.1	1	3	292	0.00	30.267 
13:10	79.4	79.4	79.3	37	50.8	1	3	90	0.00	30.267 
13:15	79.6	79.6	79.5	38	51.7	1	5	90	0.00	30.259 
13:20	79.6	79.6	79.4	37	51.0	0	3	90	0.00	30.259 
13:25	79.8	79.8	79.6	37	51.2	0	5	68	0.00	30.259 
13:30	79.9	79.9	79.6	37	51.3	0	1	68	0.00	30.256 
13:35	80.3	80.3	79.7	35	50.1	0	2	90	0.00	30.256 
13:40	80.7	80.7	80.3	39	53.4	0	2	90	0.00	30.256 
13:45	80.9	80.9	80.2	36	51.4	0	2	90	0.00	30.252 
13:50	81.1	81.1	80.4	36	51.6	0	2	90	0.00	30.252 
13:55	81.6	81.6	80.5	34	50.5	1	2	90	0.00	30.252 
14:00	81.4	81.4	80.4	34	50.3	1	3	135	0.00	30.246 
14:05	81.2	81.2	80.3	35	50.9	1	2	158	0.00	30.246 
14:10	81.1	81.1	80.4	36	51.6	0	2	112	0.00	30.246 
14:15	81.2	81.2	80.3	34	50.1	1	4	112	0.00	30.239 
14:20	81.2	81.2	80.3	34	50.1	0	2	112	0.00	30.239 
14:25	81.6	81.6	80.6	35	51.3	1	2	112	0.00	30.239 
14:30	81.8	81.8	80.7	34	50.7	0	2	112	0.00	30.236 
14:35	81.8	81.8	80.7	34	50.7	0	2	112	0.00	30.236 
14:40	82.0	82.0	80.7	33	50.0	1	3	112	0.00	30.236 
14:45	82.2	82.2	80.8	32	49.4	0	2	112	0.00	30.230 
14:50	82.2	82.2	80.7	31	48.5	0	2	112	0.00	30.230 
14:55	82.0	82.0	80.6	31	48.4	1	3	112	0.00	30.230 
15:00	81.6	81.6	80.4	32	48.9	0	2	112	0.00	30.224 
15:05	81.8	81.8	80.4	31	48.2	0	3	112	0.00	30.224 
15:10	82.0	82.0	80.7	32	49.2	1	6	68	0.00	30.224 
15:15	81.8	81.8	80.4	31	48.2	1	5	90	0.00	30.223 
15:20	81.4	81.4	80.1	30	47.0	1	3	90	0.00	30.223 
15:25	81.6	81.6	80.4	32	48.9	0	2	112	0.00	30.223 
15:30	81.6	81.6	80.3	31	48.0	1	5	112	0.00	30.222 
15:35	81.4	81.4	80.1	31	47.8	1	3	68	0.00	30.222 
15:40	81.2	81.2	80.0	31	47.7	1	4	112	0.00	30.222 
15:45	81.2	81.2	79.9	30	46.8	1	2	112	0.00	30.221 
15:50	81.6	81.6	80.3	31	48.0	1	2	90	0.00	30.221 
15:55	81.8	81.8	80.3	29	46.4	1	3	112	0.00	30.221 
16:00	81.8	81.8	80.5	32	49.0	0	2	112	0.00	30.216 
16:05	81.6	81.6	80.2	30	47.1	1	3	112	0.00	30.216 
16:10	81.6	81.6	80.2	30	47.1	1	3	112	0.00	30.216 
16:15	81.6	81.6	80.2	30	47.1	0	2	112	0.00	30.218 
16:20	81.4	81.4	80.1	31	47.8	0	2	112	0.00	30.218 
16:25	81.4	81.4	80.1	30	47.0	1	3	112	0.00	30.218 
16:30	81.2	81.2	80.1	32	48.5	1	6	112	0.00	30.212 
16:35	81.1	81.1	79.9	30	46.7	1	5	112	0.00	30.212 
16:40	80.9	80.9	79.7	30	46.5	1	3	112	0.00	30.212 
16:45	80.7	80.7	79.7	31	47.2	0	3	112	0.00	30.211 
16:50	80.5	80.5	79.6	32	47.9	0	2	45	0.00	30.211 
16:55	80.5	80.5	79.6	32	47.9	0	2	0	0.00	30.211 
17:00	80.7	80.7	79.7	31	47.2	0	4	68	0.00	30.210 
17:05	80.7	80.7	79.7	31	47.2	1	2	90	0.00	30.210 
17:10	80.5	80.5	79.6	31	47.1	0	2	90	0.00	30.210 
17:15	80.5	80.5	79.6	31	47.1	0	2	90	0.00	30.210 
17:20	80.3	80.3	79.4	31	46.9	0	3	90	0.00	30.210 
17:25	80.1	80.1	79.4	32	47.6	0	2	90	0.00	30.210 
17:30	80.1	80.1	79.4	32	47.6	0	2	90	0.00	30.210 
17:35	80.1	80.1	79.3	31	46.7	0	1	90	0.00	30.210 
17:40	80.1	80.1	79.4	32	47.6	0	1	90	0.00	30.210 
17:45	80.3	80.3	79.4	31	46.9	1	2	90	0.00	30.211 
17:50	80.1	80.1	79.3	31	46.7	1	5	90	0.00	30.211 
17:55	79.9	79.9	79.3	33	48.2	0	2	90	0.00	30.211 
18:00	79.8	79.8	79.1	31	46.5	0	5	90	0.00	30.210 
18:05	79.6	79.6	79.0	31	46.3	0	2	90	0.00	30.210 
18:10	79.2	79.2	78.9	33	47.6	0	1	90	0.00	30.210 
18:15	78.8	78.8	78.8	34	48.0	0	0	---	0.00	30.211 
18:20	78.5	78.5	78.6	34	47.8	0	2	90	0.00	30.211 
18:25	78.1	78.1	78.5	35	48.2	0	0	---	0.00	30.211 
18:30	77.9	77.9	78.4	36	48.8	0	0	---	0.00	30.212 
18:35	77.6	77.6	78.3	36	48.5	0	0	---	0.00	30.212 
18:40	77.2	77.2	78.2	37	48.9	0	0	---	0.00	30.212 
18:45	77.0	77.0	78.1	38	49.4	0	0	---	0.00	30.211 
18:50	76.8	76.8	78.1	39	49.9	0	0	---	0.00	30.211 
18:55	76.5	76.5	78.0	39	49.7	0	0	---	0.00	30.211 
19:00	76.3	76.3	77.9	39	49.5	0	0	---	0.00	30.213 
19:05	76.0	76.0	77.8	39	49.2	0	0	---	0.00	30.213 
19:10	75.8	75.8	77.7	39	49.1	0	0	---	0.00	30.213 
19:15	75.6	75.6	77.6	39	48.9	0	0	---	0.00	30.213 
19:20	75.3	75.3	77.6	40	49.3	0	0	---	0.00	30.213 
19:25	75.1	75.1	77.6	41	49.8	0	0	---	0.00	30.213 
19:30	74.7	74.7	74.7	42	50.1	0	0	---	0.00	30.216 
19:35	74.6	74.6	74.6	43	50.6	0	0	---	0.00	30.216 
19:40	74.2	74.2	74.2	44	50.9	0	0	---	0.00	30.216 
19:45	73.9	73.9	73.9	44	50.6	0	0	---	0.00	30.216 
19:50	73.5	73.5	73.5	44	50.2	0	0	---	0.00	30.216 
19:55	73.0	73.0	73.0	45	50.4	0	0	---	0.00	30.216 
20:00	72.7	72.7	72.7	47	51.3	0	0	---	0.00	30.218 
20:05	72.1	72.1	72.1	48	51.3	0	0	---	0.00	30.218 
20:10	71.8	71.8	71.8	49	51.6	0	0	---	0.00	30.218 
20:15	71.3	71.3	71.3	49	51.1	0	0	---	0.00	30.221 
20:20	70.8	70.8	70.8	51	51.8	0	0	---	0.00	30.221 
20:25	70.3	70.3	70.3	52	51.8	0	0	---	0.00	30.221 
20:30	69.8	69.8	69.8	53	51.9	0	0	---	0.00	30.223 
20:35	69.1	69.1	69.1	56	52.7	0	0	---	0.00	30.223 
20:40	68.4	68.4	68.4	58	53.0	0	0	---	0.00	30.223 
20:45	67.8	67.8	67.8	58	52.5	0	0	---	0.00	30.230 
20:50	67.3	67.3	67.3	59	52.5	0	0	---	0.00	30.230 
20:55	66.8	66.8	66.8	60	52.5	0	0	---	0.00	30.230 
21:00	66.1	66.1	66.1	62	52.7	0	0	---	0.00	30.233 
21:05	65.6	65.6	65.6	63	52.7	0	0	---	0.00	30.233 
21:10	65.3	65.3	65.3	63	52.4	0	0	---	0.00	30.233 
21:15	65.0	65.0	65.0	63	52.1	0	0	---	0.00	30.230 
21:20	64.7	64.7	64.7	63	51.8	0	0	---	0.00	30.230 
21:25	64.5	64.5	64.5	63	51.6	0	0	---	0.00	30.230 
21:30	64.2	64.2	64.2	64	51.8	0	0	---	0.00	30.232 
21:35	63.9	63.9	63.9	65	51.9	0	0	---	0.00	30.232 
21:40	63.7	63.7	63.7	66	52.1	0	0	---	0.00	30.232 
21:45	63.4	63.4	63.4	68	52.6	0	0	---	0.00	30.234 
21:50	63.1	63.1	63.1	69	52.8	0	0	---	0.00	30.234 
21:55	62.7	62.7	62.7	69	52.4	0	0	---	0.00	30.234 
22:00	62.6	62.6	62.6	69	52.3	0	0	---	0.00	30.235 
22:05	62.3	62.3	62.3	71	52.8	0	0	---	0.00	30.235 
22:10	62.0	62.0	62.0	72	52.9	0	0	---	0.00	30.235 
22:15	61.8	61.8	61.8	72	52.7	0	0	---	0.00	30.228 
22:20	61.6	61.6	61.6	72	52.5	0	0	---	0.00	30.228 
22:25	61.5	61.5	61.5	73	52.8	0	0	---	0.00	30.228 
22:30	61.3	61.3	61.3	73	52.6	0	0	---	0.00	30.234 
22:35	61.0	61.0	61.0	74	52.6	0	0	---	0.00	30.234 
22:40	60.9	60.9	60.9	74	52.6	0	0	---	0.00	30.234 
22:45	60.7	60.7	60.7	75	52.7	0	0	---	0.00	30.234 
22:50	60.5	60.5	60.5	76	52.9	0	0	---	0.00	30.234 
22:55	60.4	60.4	60.4	76	52.8	0	0	---	0.00	30.234 
23:00	60.2	60.2	60.2	76	52.6	0	0	---	0.00	30.238 
23:05	60.1	60.1	60.1	77	52.9	0	0	---	0.00	30.238 
23:10	59.9	59.9	59.9	77	52.7	0	0	---	0.00	30.238 
23:15	59.8	59.8	59.8	77	52.6	0	0	---	0.00	30.238 
23:20	59.8	59.8	59.8	78	52.9	0	0	---	0.00	30.238 
23:25	59.6	59.6	59.6	78	52.7	0	0	---	0.00	30.238 
23:30	59.5	59.5	59.5	78	52.6	0	0	---	0.00	30.241 
23:35	59.3	59.3	59.3	78	52.4	0	0	---	0.00	30.241 
23:40	59.2	59.2	59.2	78	52.3	0	0	---	0.00	30.241 
23:45	59.0	59.0	59.0	79	52.5	0	0	---	0.00	30.240 
23:50	58.9	58.9	58.9	79	52.4	0	0	---	0.00	30.240 
23:55	58.7	58.7	58.7	79	52.2	0	0	---	0.00	30.240 

CoCoRaHS
IN-AL-39
A2 Web Hosting
Creative Commons License
GoDaddy
search engine by freefind advanced

loaded 2018-11-19 18:58:34 • last modified 2010-11-18 10:43:29
Privacy PolicyDisclaimer
• wx.awcolley.com is powered by PmWiki v.2002016 •
• all content (unless otherwise noted) © 2018 A W Colley